sensor_id;sensor_type;location;lat;lon;timestamp;pressure;altitude;pressure_sealevel;temperature;humidity
40502;BME280;29631;49.168;9.848;2023-06-10T00:01:52;96317.56;;;24.51;71.53
40502;BME280;29631;49.168;9.848;2023-06-10T00:04:20;96324.47;;;24.57;71.76
40502;BME280;29631;49.168;9.848;2023-06-10T00:06:46;96318.88;;;24.53;71.87
40502;BME280;29631;49.168;9.848;2023-06-10T00:09:15;96323.69;;;24.56;71.43
40502;BME280;29631;49.168;9.848;2023-06-10T00:11:41;96339.84;;;24.56;71.92
40502;BME280;29631;49.168;9.848;2023-06-10T00:14:08;96328.28;;;24.56;71.72
40502;BME280;29631;49.168;9.848;2023-06-10T00:16:35;96323.06;;;24.46;72.24
40502;BME280;29631;49.168;9.848;2023-06-10T00:19:03;96298.38;;;24.25;71.92
40502;BME280;29631;49.168;9.848;2023-06-10T00:21:30;96334.84;;;24.50;72.21
40502;BME280;29631;49.168;9.848;2023-06-10T00:24:07;96325.84;;;24.41;72.62
40502;BME280;29631;49.168;9.848;2023-06-10T00:26:38;96325.03;;;24.40;72.11
40502;BME280;29631;49.168;9.848;2023-06-10T00:29:04;96328.84;;;24.39;72.10
40502;BME280;29631;49.168;9.848;2023-06-10T00:31:30;96304.38;;;24.22;72.45
40502;BME280;29631;49.168;9.848;2023-06-10T00:33:56;96319.06;;;24.30;72.31
40502;BME280;29631;49.168;9.848;2023-06-10T00:36:22;96334.94;;;24.31;72.51
40502;BME280;29631;49.168;9.848;2023-06-10T00:38:47;96316.03;;;24.18;72.11
40502;BME280;29631;49.168;9.848;2023-06-10T00:41:13;96325.34;;;24.25;72.70
40502;BME280;29631;49.168;9.848;2023-06-10T00:43:39;96283.09;;;23.94;72.68
40502;BME280;29631;49.168;9.848;2023-06-10T00:46:05;96331.63;;;24.21;72.79
40502;BME280;29631;49.168;9.848;2023-06-10T00:48:31;96332.19;;;24.18;72.67
40502;BME280;29631;49.168;9.848;2023-06-10T00:50:58;96325.25;;;24.17;72.94
40502;BME280;29631;49.168;9.848;2023-06-10T00:53:26;96312.25;;;24.06;72.79
40502;BME280;29631;49.168;9.848;2023-06-10T00:55:52;96330.63;;;24.17;73.20
40502;BME280;29631;49.168;9.848;2023-06-10T00:58:18;96322.72;;;24.07;73.07
40502;BME280;29631;49.168;9.848;2023-06-10T01:00:44;96327.53;;;24.10;73.76
40502;BME280;29631;49.168;9.848;2023-06-10T01:03:11;96320.69;;;23.99;73.81
40502;BME280;29631;49.168;9.848;2023-06-10T01:05:38;96316.19;;;23.95;73.19
40502;BME280;29631;49.168;9.848;2023-06-10T01:08:25;96322.78;;;23.89;73.84
40502;BME280;29631;49.168;9.848;2023-06-10T01:10:58;96343.34;;;23.98;73.86
40502;BME280;29631;49.168;9.848;2023-06-10T01:13:26;96329.34;;;23.83;73.68
40502;BME280;29631;49.168;9.848;2023-06-10T01:15:55;96343.53;;;23.88;73.50
40502;BME280;29631;49.168;9.848;2023-06-10T01:18:22;96336.13;;;23.80;73.98
40502;BME280;29631;49.168;9.848;2023-06-10T01:20:48;96334.31;;;23.76;74.05
40502;BME280;29631;49.168;9.848;2023-06-10T01:23:15;96341.81;;;23.79;73.99
40502;BME280;29631;49.168;9.848;2023-06-10T01:25:57;96333.06;;;23.68;74.07
40502;BME280;29631;49.168;9.848;2023-06-10T01:28:41;96341.44;;;23.67;74.18
40502;BME280;29631;49.168;9.848;2023-06-10T01:31:23;96342.03;;;23.64;74.20
40502;BME280;29631;49.168;9.848;2023-06-10T01:33:53;96341.81;;;23.60;74.31
40502;BME280;29631;49.168;9.848;2023-06-10T01:36:19;96345.59;;;23.59;74.40
40502;BME280;29631;49.168;9.848;2023-06-10T01:38:48;96330.19;;;23.46;74.05
40502;BME280;29631;49.168;9.848;2023-06-10T01:41:17;96342.34;;;23.44;74.57
40502;BME280;29631;49.168;9.848;2023-06-10T01:43:44;96350.19;;;23.40;74.54
40502;BME280;29631;49.168;9.848;2023-06-10T01:46:11;96334.75;;;23.33;74.37
40502;BME280;29631;49.168;9.848;2023-06-10T01:48:38;96340.59;;;23.35;74.26
40502;BME280;29631;49.168;9.848;2023-06-10T01:51:04;96340.97;;;23.28;74.84
40502;BME280;29631;49.168;9.848;2023-06-10T01:53:30;96335.25;;;23.16;74.40
40502;BME280;29631;49.168;9.848;2023-06-10T01:55:56;96332.81;;;23.15;74.78
40502;BME280;29631;49.168;9.848;2023-06-10T01:58:22;96328.03;;;23.12;74.42
40502;BME280;29631;49.168;9.848;2023-06-10T02:00:48;96347.19;;;23.10;74.75
40502;BME280;29631;49.168;9.848;2023-06-10T02:03:13;96336.19;;;23.07;74.55
40502;BME280;29631;49.168;9.848;2023-06-10T02:05:39;96331.94;;;23.01;74.69
40502;BME280;29631;49.168;9.848;2023-06-10T02:08:05;96345.66;;;23.04;74.54
40502;BME280;29631;49.168;9.848;2023-06-10T02:10:31;96352.34;;;23.07;74.95
40502;BME280;29631;49.168;9.848;2023-06-10T02:12:57;96356.13;;;23.06;74.96
40502;BME280;29631;49.168;9.848;2023-06-10T02:15:23;96343.84;;;22.95;75.01
40502;BME280;29631;49.168;9.848;2023-06-10T02:17:48;96347.63;;;22.94;74.95
40502;BME280;29631;49.168;9.848;2023-06-10T02:20:17;96346.09;;;22.88;75.00
40502;BME280;29631;49.168;9.848;2023-06-10T02:22:42;96357.34;;;22.90;75.06
40502;BME280;29631;49.168;9.848;2023-06-10T02:25:09;96336.31;;;22.73;75.18
40502;BME280;29631;49.168;9.848;2023-06-10T02:27:34;96331.31;;;22.67;74.83
40502;BME280;29631;49.168;9.848;2023-06-10T02:30:00;96335.66;;;22.63;75.44
40502;BME280;29631;49.168;9.848;2023-06-10T02:32:26;96336.81;;;22.57;75.38
40502;BME280;29631;49.168;9.848;2023-06-10T02:34:52;96336.53;;;22.59;75.31
40502;BME280;29631;49.168;9.848;2023-06-10T02:37:18;96341.16;;;22.53;75.06
40502;BME280;29631;49.168;9.848;2023-06-10T02:39:44;96327.34;;;22.41;74.98
40502;BME280;29631;49.168;9.848;2023-06-10T02:42:10;96348.72;;;22.51;75.16
40502;BME280;29631;49.168;9.848;2023-06-10T02:44:36;96348.47;;;22.48;75.25
40502;BME280;29631;49.168;9.848;2023-06-10T02:47:02;96343.97;;;22.43;75.41
40502;BME280;29631;49.168;9.848;2023-06-10T02:49:27;96355.00;;;22.42;75.32
40502;BME280;29631;49.168;9.848;2023-06-10T02:51:54;96366.03;;;22.40;75.05
40502;BME280;29631;49.168;9.848;2023-06-10T02:54:20;96331.88;;;22.17;75.61
40502;BME280;29631;49.168;9.848;2023-06-10T02:56:46;96349.81;;;22.22;75.63
40502;BME280;29631;49.168;9.848;2023-06-10T02:59:14;96355.47;;;22.20;75.55
40502;BME280;29631;49.168;9.848;2023-06-10T03:01:40;96339.28;;;22.02;75.70
40502;BME280;29631;49.168;9.848;2023-06-10T03:04:07;96356.66;;;22.09;75.18
40502;BME280;29631;49.168;9.848;2023-06-10T03:06:33;96358.53;;;22.09;75.50
40502;BME280;29631;49.168;9.848;2023-06-10T03:09:02;96366.34;;;22.10;75.58
40502;BME280;29631;49.168;9.848;2023-06-10T03:11:33;96351.38;;;21.99;75.40
40502;BME280;29631;49.168;9.848;2023-06-10T03:13:58;96287.38;;;21.55;75.70
40502;BME280;29631;49.168;9.848;2023-06-10T03:16:24;96359.97;;;22.01;75.53
40502;BME280;29631;49.168;9.848;2023-06-10T03:18:52;96355.72;;;21.95;75.66
40502;BME280;29631;49.168;9.848;2023-06-10T03:21:17;96366.22;;;21.92;75.87
40502;BME280;29631;49.168;9.848;2023-06-10T03:23:43;96354.78;;;21.82;75.65
40502;BME280;29631;49.168;9.848;2023-06-10T03:26:10;96372.50;;;21.83;75.92
40502;BME280;29631;49.168;9.848;2023-06-10T03:28:37;96358.66;;;21.71;75.65
40502;BME280;29631;49.168;9.848;2023-06-10T03:31:03;96329.53;;;21.49;75.75
40502;BME280;29631;49.168;9.848;2023-06-10T03:33:29;96373.69;;;21.67;75.98
40502;BME280;29631;49.168;9.848;2023-06-10T03:35:55;96369.69;;;21.64;75.67
40502;BME280;29631;49.168;9.848;2023-06-10T03:38:21;96357.69;;;21.57;75.91
40502;BME280;29631;49.168;9.848;2023-06-10T03:40:47;96362.53;;;21.55;76.12
40502;BME280;29631;49.168;9.848;2023-06-10T03:43:13;96371.13;;;21.52;76.14
40502;BME280;29631;49.168;9.848;2023-06-10T03:45:38;96362.53;;;21.50;76.09
40502;BME280;29631;49.168;9.848;2023-06-10T03:48:05;96375.41;;;21.53;76.02
40502;BME280;29631;49.168;9.848;2023-06-10T03:50:31;96358.03;;;21.40;76.07
40502;BME280;29631;49.168;9.848;2023-06-10T03:52:58;96361.81;;;21.39;76.41
40502;BME280;29631;49.168;9.848;2023-06-10T03:55:23;96360.53;;;21.32;76.47
40502;BME280;29631;49.168;9.848;2023-06-10T03:57:50;96381.34;;;21.45;76.64
40502;BME280;29631;49.168;9.848;2023-06-10T04:00:16;96381.91;;;21.42;76.81
40502;BME280;29631;49.168;9.848;2023-06-10T04:02:43;96392.63;;;21.42;76.74
40502;BME280;29631;49.168;9.848;2023-06-10T04:05:13;96390.53;;;21.39;77.19
40502;BME280;29631;49.168;9.848;2023-06-10T04:07:40;96358.44;;;21.24;76.94
40502;BME280;29631;49.168;9.848;2023-06-10T04:10:08;96372.88;;;21.33;77.16
40502;BME280;29631;49.168;9.848;2023-06-10T04:12:35;96375.00;;;21.31;77.30
40502;BME280;29631;49.168;9.848;2023-06-10T04:15:03;96380.34;;;21.36;77.20
40502;BME280;29631;49.168;9.848;2023-06-10T04:17:29;96376.88;;;21.35;77.48
40502;BME280;29631;49.168;9.848;2023-06-10T04:19:55;96376.88;;;21.35;77.46
40502;BME280;29631;49.168;9.848;2023-06-10T04:22:21;96381.91;;;21.42;77.46
40502;BME280;29631;49.168;9.848;2023-06-10T04:24:48;96371.25;;;21.32;77.63
40502;BME280;29631;49.168;9.848;2023-06-10T04:27:14;96378.72;;;21.40;77.73
40502;BME280;29631;49.168;9.848;2023-06-10T04:29:40;96394.72;;;21.50;77.82
40502;BME280;29631;49.168;9.848;2023-06-10T04:32:06;96400.63;;;21.52;78.10
40502;BME280;29631;49.168;9.848;2023-06-10T04:34:33;96394.72;;;21.50;78.28
40502;BME280;29631;49.168;9.848;2023-06-10T04:37:00;96397.69;;;21.53;77.98
40502;BME280;29631;49.168;9.848;2023-06-10T04:39:25;96393.66;;;21.56;78.38
40502;BME280;29631;49.168;9.848;2023-06-10T04:41:51;96394.72;;;21.55;78.09
40502;BME280;29631;49.168;9.848;2023-06-10T04:44:17;96391.97;;;21.65;78.65
40502;BME280;29631;49.168;9.848;2023-06-10T04:46:44;96393.06;;;21.64;78.54
40502;BME280;29631;49.168;9.848;2023-06-10T04:49:11;96395.16;;;21.67;78.71
40502;BME280;29631;49.168;9.848;2023-06-10T04:51:39;96393.53;;;21.71;78.66
40502;BME280;29631;49.168;9.848;2023-06-10T04:54:05;96397.25;;;21.75;78.99
40502;BME280;29631;49.168;9.848;2023-06-10T04:56:31;96389.72;;;21.77;78.79
40502;BME280;29631;49.168;9.848;2023-06-10T04:58:57;96386.47;;;21.80;78.77
40502;BME280;29631;49.168;9.848;2023-06-10T05:01:23;96381.69;;;21.77;78.69
40502;BME280;29631;49.168;9.848;2023-06-10T05:03:49;96383.25;;;21.83;78.80
40502;BME280;29631;49.168;9.848;2023-06-10T05:06:14;96388.00;;;21.91;79.17
40502;BME280;29631;49.168;9.848;2023-06-10T05:08:40;96382.63;;;21.91;79.03
40502;BME280;29631;49.168;9.848;2023-06-10T05:11:06;96376.50;;;21.85;79.14
40502;BME280;29631;49.168;9.848;2023-06-10T05:13:32;96395.66;;;22.02;79.40
40502;BME280;29631;49.168;9.848;2023-06-10T05:15:58;96406.63;;;22.10;79.03
40502;BME280;29631;49.168;9.848;2023-06-10T05:18:24;96387.84;;;22.05;79.20
40502;BME280;29631;49.168;9.848;2023-06-10T05:20:50;96391.81;;;22.13;79.61
40502;BME280;29631;49.168;9.848;2023-06-10T05:23:16;96409.16;;;22.25;79.40
40502;BME280;29631;49.168;9.848;2023-06-10T05:25:41;96399.72;;;22.28;79.61
40502;BME280;29631;49.168;9.848;2023-06-10T05:28:08;96407.50;;;22.34;79.95
40502;BME280;29631;49.168;9.848;2023-06-10T05:30:36;96404.44;;;22.41;79.83
40502;BME280;29631;49.168;9.848;2023-06-10T05:33:03;96411.38;;;22.47;80.00
40502;BME280;29631;49.168;9.848;2023-06-10T05:35:28;96412.13;;;22.52;80.18
40502;BME280;29631;49.168;9.848;2023-06-10T05:37:54;96389.66;;;22.43;80.12
40502;BME280;29631;49.168;9.848;2023-06-10T05:40:20;96403.50;;;22.55;80.61
40502;BME280;29631;49.168;9.848;2023-06-10T05:42:46;96402.31;;;22.66;80.23
40502;BME280;29631;49.168;9.848;2023-06-10T05:45:11;96404.44;;;22.69;80.64
40502;BME280;29631;49.168;9.848;2023-06-10T05:47:37;96404.91;;;22.71;80.83
40502;BME280;29631;49.168;9.848;2023-06-10T05:50:03;96410.91;;;22.86;80.92
40502;BME280;29631;49.168;9.848;2023-06-10T05:52:33;96408.97;;;22.92;81.29
40502;BME280;29631;49.168;9.848;2023-06-10T05:54:59;96416.41;;;23.00;81.95
40502;BME280;29631;49.168;9.848;2023-06-10T05:57:25;96397.84;;;22.98;81.62
40502;BME280;29631;49.168;9.848;2023-06-10T05:59:51;96407.16;;;23.11;82.11
40502;BME280;29631;49.168;9.848;2023-06-10T06:02:17;96416.19;;;23.20;82.27
40502;BME280;29631;49.168;9.848;2023-06-10T06:04:43;96403.22;;;23.22;82.22
40502;BME280;29631;49.168;9.848;2023-06-10T06:07:09;96404.50;;;23.29;82.38
40502;BME280;29631;49.168;9.848;2023-06-10T06:09:35;96419.09;;;23.41;82.75
40502;BME280;29631;49.168;9.848;2023-06-10T06:12:00;96412.69;;;23.38;82.29
40502;BME280;29631;49.168;9.848;2023-06-10T06:14:26;96413.28;;;23.53;82.67
40502;BME280;29631;49.168;9.848;2023-06-10T06:16:52;96420.19;;;23.59;82.60
40502;BME280;29631;49.168;9.848;2023-06-10T06:19:17;96416.03;;;23.66;82.82
40502;BME280;29631;49.168;9.848;2023-06-10T06:21:43;96424.53;;;23.78;83.10
40502;BME280;29631;49.168;9.848;2023-06-10T06:24:09;96426.91;;;23.80;82.93
40502;BME280;29631;49.168;9.848;2023-06-10T06:26:35;96414.97;;;23.86;83.42
40502;BME280;29631;49.168;9.848;2023-06-10T06:29:00;96397.75;;;23.82;83.55
40502;BME280;29631;49.168;9.848;2023-06-10T06:31:26;96432.75;;;24.00;83.08
40502;BME280;29631;49.168;9.848;2023-06-10T06:33:52;96397.63;;;23.92;83.02
40502;BME280;29631;49.168;9.848;2023-06-10T06:36:17;96407.84;;;24.08;84.06
40502;BME280;29631;49.168;9.848;2023-06-10T06:38:43;96433.03;;;24.17;83.96
40502;BME280;29631;49.168;9.848;2023-06-10T06:41:09;96405.88;;;24.14;84.46
40502;BME280;29631;49.168;9.848;2023-06-10T06:43:35;96397.31;;;24.25;84.59
40502;BME280;29631;49.168;9.848;2023-06-10T06:46:00;96421.84;;;24.42;84.69
40502;BME280;29631;49.168;9.848;2023-06-10T06:48:26;96423.34;;;24.48;84.44
40502;BME280;29631;49.168;9.848;2023-06-10T06:50:52;96421.06;;;24.55;84.39
40502;BME280;29631;49.168;9.848;2023-06-10T06:53:18;96444.03;;;24.66;84.41
40502;BME280;29631;49.168;9.848;2023-06-10T06:55:44;96441.75;;;24.73;84.35
40502;BME280;29631;49.168;9.848;2023-06-10T06:58:09;96404.16;;;24.63;84.39
40502;BME280;29631;49.168;9.848;2023-06-10T07:00:35;96440.34;;;24.88;84.45
40502;BME280;29631;49.168;9.848;2023-06-10T07:03:01;96429.97;;;24.95;85.17
40502;BME280;29631;49.168;9.848;2023-06-10T07:05:26;96408.97;;;24.92;84.87
40502;BME280;29631;49.168;9.848;2023-06-10T07:07:53;96427.78;;;25.11;84.42
40502;BME280;29631;49.168;9.848;2023-06-10T07:10:25;96421.00;;;25.13;84.88
40502;BME280;29631;49.168;9.848;2023-06-10T07:12:51;96418.66;;;25.20;84.70
40502;BME280;29631;49.168;9.848;2023-06-10T07:15:17;96430.44;;;25.38;84.75
40502;BME280;29631;49.168;9.848;2023-06-10T07:17:43;96419.34;;;25.39;85.28
40502;BME280;29631;49.168;9.848;2023-06-10T07:20:10;96381.56;;;25.26;85.08
40502;BME280;29631;49.168;9.848;2023-06-10T07:22:35;96414.69;;;25.53;84.99
40502;BME280;29631;49.168;9.848;2023-06-10T07:25:01;96427.38;;;25.66;85.28
40502;BME280;29631;49.168;9.848;2023-06-10T07:27:27;96442.16;;;25.82;85.05
40502;BME280;29631;49.168;9.848;2023-06-10T07:29:53;96431.06;;;25.83;84.99
40502;BME280;29631;49.168;9.848;2023-06-10T07:32:19;96436.22;;;25.93;84.99
40502;BME280;29631;49.168;9.848;2023-06-10T07:34:47;96441.06;;;26.05;84.88
40502;BME280;29631;49.168;9.848;2023-06-10T07:37:13;96421.16;;;26.01;84.75
40502;BME280;29631;49.168;9.848;2023-06-10T07:39:39;96439.09;;;26.19;85.01
40502;BME280;29631;49.168;9.848;2023-06-10T07:42:05;96431.34;;;26.26;84.18
40502;BME280;29631;49.168;9.848;2023-06-10T07:44:31;96442.94;;;26.40;84.56
40502;BME280;29631;49.168;9.848;2023-06-10T07:46:57;96427.22;;;26.42;84.33
40502;BME280;29631;49.168;9.848;2023-06-10T07:49:23;96430.44;;;26.52;84.17
40502;BME280;29631;49.168;9.848;2023-06-10T07:51:50;96434.28;;;26.59;84.30
40502;BME280;29631;49.168;9.848;2023-06-10T07:54:16;96432.41;;;26.68;84.03
40502;BME280;29631;49.168;9.848;2023-06-10T07:56:42;96422.59;;;26.72;83.49
40502;BME280;29631;49.168;9.848;2023-06-10T07:59:07;96434.72;;;26.83;83.44
40502;BME280;29631;49.168;9.848;2023-06-10T08:01:33;96429.31;;;26.83;83.28
40502;BME280;29631;49.168;9.848;2023-06-10T08:04:01;96447.34;;;26.96;83.26
40502;BME280;29631;49.168;9.848;2023-06-10T08:06:27;96433.81;;;26.96;83.35
40502;BME280;29631;49.168;9.848;2023-06-10T08:08:52;96428.78;;;27.03;83.54
40502;BME280;29631;49.168;9.848;2023-06-10T08:11:18;96430.72;;;27.11;82.68
40502;BME280;29631;49.168;9.848;2023-06-10T08:13:44;96441.13;;;27.26;83.12
40502;BME280;29631;49.168;9.848;2023-06-10T08:16:10;96440.16;;;27.30;83.58
40502;BME280;29631;49.168;9.848;2023-06-10T08:18:36;96435.06;;;27.37;83.22
40502;BME280;29631;49.168;9.848;2023-06-10T08:21:01;96430.31;;;27.43;83.38
40502;BME280;29631;49.168;9.848;2023-06-10T08:23:27;96438.00;;;27.58;82.66
40502;BME280;29631;49.168;9.848;2023-06-10T08:25:53;96436.28;;;27.62;82.98
40502;BME280;29631;49.168;9.848;2023-06-10T08:28:18;96428.47;;;27.69;82.62
40502;BME280;29631;49.168;9.848;2023-06-10T08:30:44;96420.50;;;27.72;82.36
40502;BME280;29631;49.168;9.848;2023-06-10T08:33:10;96423.53;;;27.88;82.34
40502;BME280;29631;49.168;9.848;2023-06-10T08:35:36;96434.03;;;27.97;82.09
40502;BME280;29631;49.168;9.848;2023-06-10T08:38:02;96437.06;;;28.04;81.84
40502;BME280;29631;49.168;9.848;2023-06-10T08:40:27;96428.94;;;28.13;81.91
40502;BME280;29631;49.168;9.848;2023-06-10T08:43:04;96419.38;;;28.15;81.48
40502;BME280;29631;49.168;9.848;2023-06-10T08:45:32;96415.22;;;28.26;81.50
40502;BME280;29631;49.168;9.848;2023-06-10T08:48:03;96420.63;;;28.35;80.83
40502;BME280;29631;49.168;9.848;2023-06-10T08:50:36;96422.88;;;28.41;80.47
40502;BME280;29631;49.168;9.848;2023-06-10T08:53:05;96413.88;;;28.49;79.86
40502;BME280;29631;49.168;9.848;2023-06-10T08:55:48;96416.44;;;28.54;79.65
40502;BME280;29631;49.168;9.848;2023-06-10T08:58:16;96414.47;;;28.63;80.41
40502;BME280;29631;49.168;9.848;2023-06-10T09:00:43;96417.81;;;28.68;79.96
40502;BME280;29631;49.168;9.848;2023-06-10T09:03:09;96403.44;;;28.76;79.89
40502;BME280;29631;49.168;9.848;2023-06-10T09:05:35;96403.28;;;28.81;79.59
40502;BME280;29631;49.168;9.848;2023-06-10T09:08:06;96426.84;;;28.98;79.75
40502;BME280;29631;49.168;9.848;2023-06-10T09:10:33;96416.78;;;28.98;79.13
40502;BME280;29631;49.168;9.848;2023-06-10T09:12:58;96420.53;;;29.14;79.01
40502;BME280;29631;49.168;9.848;2023-06-10T09:15:24;96418.28;;;29.16;79.03
40502;BME280;29631;49.168;9.848;2023-06-10T09:17:50;96409.97;;;29.21;78.89
40502;BME280;29631;49.168;9.848;2023-06-10T09:20:17;96407.53;;;29.28;78.72
40502;BME280;29631;49.168;9.848;2023-06-10T09:22:43;96422.00;;;29.41;78.35
40502;BME280;29631;49.168;9.848;2023-06-10T09:25:12;96420.25;;;29.44;77.89
40502;BME280;29631;49.168;9.848;2023-06-10T09:27:52;96413.00;;;29.48;78.12
40502;BME280;29631;49.168;9.848;2023-06-10T09:30:33;96405.91;;;29.56;77.91
40502;BME280;29631;49.168;9.848;2023-06-10T09:33:11;96409.25;;;29.61;77.99
40502;BME280;29631;49.168;9.848;2023-06-10T09:35:46;96401.56;;;29.63;76.99
40502;BME280;29631;49.168;9.848;2023-06-10T09:38:15;96403.38;;;29.71;77.01
40502;BME280;29631;49.168;9.848;2023-06-10T09:40:54;96396.81;;;29.72;76.39
40502;BME280;29631;49.168;9.848;2023-06-10T09:43:21;96401.88;;;29.82;76.84
40502;BME280;29631;49.168;9.848;2023-06-10T09:45:50;96407.59;;;29.89;76.10
40502;BME280;29631;49.168;9.848;2023-06-10T09:48:19;96413.19;;;29.93;75.99
40502;BME280;29631;49.168;9.848;2023-06-10T09:50:45;96406.28;;;29.95;76.05
40502;BME280;29631;49.168;9.848;2023-06-10T09:53:11;96405.38;;;30.03;75.98
40502;BME280;29631;49.168;9.848;2023-06-10T09:55:38;96397.13;;;30.00;75.64
40502;BME280;29631;49.168;9.848;2023-06-10T09:58:04;96405.00;;;30.13;75.58
40502;BME280;29631;49.168;9.848;2023-06-10T10:00:33;96400.47;;;30.17;75.27
40502;BME280;29631;49.168;9.848;2023-06-10T10:03:00;96391.72;;;30.12;74.94
40502;BME280;29631;49.168;9.848;2023-06-10T10:05:27;96409.69;;;30.24;74.72
40502;BME280;29631;49.168;9.848;2023-06-10T10:07:53;96405.50;;;30.27;74.83
40502;BME280;29631;49.168;9.848;2023-06-10T10:10:20;96406.41;;;30.31;73.87
40502;BME280;29631;49.168;9.848;2023-06-10T10:12:48;96407.00;;;30.36;74.52
40502;BME280;29631;49.168;9.848;2023-06-10T10:15:17;96381.44;;;30.29;74.20
40502;BME280;29631;49.168;9.848;2023-06-10T10:17:53;96405.59;;;30.51;73.80
40502;BME280;29631;49.168;9.848;2023-06-10T10:20:27;96389.38;;;30.54;73.64
40502;BME280;29631;49.168;9.848;2023-06-10T10:22:57;96394.28;;;30.61;74.28
40502;BME280;29631;49.168;9.848;2023-06-10T10:25:27;96392.25;;;30.70;73.56
40502;BME280;29631;49.168;9.848;2023-06-10T10:28:12;96395.31;;;30.68;73.28
40502;BME280;29631;49.168;9.848;2023-06-10T10:30:49;96397.69;;;30.70;73.65
40502;BME280;29631;49.168;9.848;2023-06-10T10:33:33;96391.22;;;30.74;73.28
40502;BME280;29631;49.168;9.848;2023-06-10T10:36:01;96389.53;;;30.82;73.85
40502;BME280;29631;49.168;9.848;2023-06-10T10:38:28;96392.94;;;30.91;73.26
40502;BME280;29631;49.168;9.848;2023-06-10T10:40:55;96380.81;;;30.88;72.87
40502;BME280;29631;49.168;9.848;2023-06-10T10:43:25;96383.91;;;30.98;73.00
40502;BME280;29631;49.168;9.848;2023-06-10T10:45:59;96374.59;;;30.99;72.06
40502;BME280;29631;49.168;9.848;2023-06-10T10:48:27;96376.19;;;31.00;72.71
40502;BME280;29631;49.168;9.848;2023-06-10T10:50:58;96390.25;;;31.14;72.44
40502;BME280;29631;49.168;9.848;2023-06-10T10:53:24;96396.41;;;31.23;72.04
40502;BME280;29631;49.168;9.848;2023-06-10T10:58:32;96382.31;;;31.21;71.78
40502;BME280;29631;49.168;9.848;2023-06-10T11:00:58;96365.06;;;31.17;71.52
40502;BME280;29631;49.168;9.848;2023-06-10T11:03:29;96391.28;;;31.34;71.46
40502;BME280;29631;49.168;9.848;2023-06-10T11:05:58;96384.34;;;31.36;71.51
40502;BME280;29631;49.168;9.848;2023-06-10T11:11:25;96388.63;;;31.49;71.67
40502;BME280;29631;49.168;9.848;2023-06-10T11:14:29;96374.09;;;31.45;71.40
40502;BME280;29631;49.168;9.848;2023-06-10T11:16:59;96377.88;;;31.53;71.27
40502;BME280;29631;49.168;9.848;2023-06-10T11:19:36;96392.03;;;31.58;70.90
40502;BME280;29631;49.168;9.848;2023-06-10T11:22:07;96377.97;;;31.56;71.05
40502;BME280;29631;49.168;9.848;2023-06-10T11:24:33;96383.53;;;31.60;71.00
40502;BME280;29631;49.168;9.848;2023-06-10T11:27:18;96394.97;;;31.65;70.69
40502;BME280;29631;49.168;9.848;2023-06-10T11:30:19;96369.34;;;31.54;70.77
40502;BME280;29631;49.168;9.848;2023-06-10T11:32:51;96390.88;;;31.71;70.40
40502;BME280;29631;49.168;9.848;2023-06-10T11:35:19;96384.53;;;31.67;69.98
40502;BME280;29631;49.168;9.848;2023-06-10T11:37:47;96385.31;;;31.67;70.29
40502;BME280;29631;49.168;9.848;2023-06-10T11:40:13;96376.34;;;31.67;70.67
40502;BME280;29631;49.168;9.848;2023-06-10T11:42:40;96395.66;;;31.74;70.41
40502;BME280;29631;49.168;9.848;2023-06-10T11:45:08;96390.97;;;31.74;70.38
40502;BME280;29631;49.168;9.848;2023-06-10T11:47:34;96380.19;;;31.78;70.19
40502;BME280;29631;49.168;9.848;2023-06-10T11:49:59;96388.16;;;31.83;70.87
40502;BME280;29631;49.168;9.848;2023-06-10T11:52:30;96374.03;;;31.81;70.27
40502;BME280;29631;49.168;9.848;2023-06-10T11:54:59;96353.16;;;31.73;70.38
40502;BME280;29631;49.168;9.848;2023-06-10T11:57:25;96381.50;;;31.96;71.20
40502;BME280;29631;49.168;9.848;2023-06-10T11:59:50;96380.34;;;31.97;70.60
40502;BME280;29631;49.168;9.848;2023-06-10T12:02:17;96380.56;;;32.04;70.61
40502;BME280;29631;49.168;9.848;2023-06-10T12:04:44;96369.19;;;32.02;70.56
40502;BME280;29631;49.168;9.848;2023-06-10T12:07:20;96369.19;;;32.02;69.87
40502;BME280;29631;49.168;9.848;2023-06-10T12:09:46;96380.50;;;32.16;70.22
40502;BME280;29631;49.168;9.848;2023-06-10T12:12:12;96377.09;;;32.19;70.37
40502;BME280;29631;49.168;9.848;2023-06-10T12:14:58;96383.00;;;32.21;70.44
40502;BME280;29631;49.168;9.848;2023-06-10T12:17:37;96376.59;;;32.29;69.88
40502;BME280;29631;49.168;9.848;2023-06-10T12:20:07;96369.97;;;32.30;70.40
40502;BME280;29631;49.168;9.848;2023-06-10T12:22:44;96380.41;;;32.40;69.77
40502;BME280;29631;49.168;9.848;2023-06-10T12:25:11;96366.75;;;32.40;70.04
40502;BME280;29631;49.168;9.848;2023-06-10T12:27:38;96376.72;;;32.47;69.93
40502;BME280;29631;49.168;9.848;2023-06-10T12:30:05;96376.72;;;32.47;69.18
40502;BME280;29631;49.168;9.848;2023-06-10T12:32:45;96373.91;;;32.44;69.03
40502;BME280;29631;49.168;9.848;2023-06-10T12:35:22;96353.53;;;32.42;69.28
40502;BME280;29631;49.168;9.848;2023-06-10T12:38:04;96358.75;;;32.46;69.01
40502;BME280;29631;49.168;9.848;2023-06-10T12:40:38;96342.00;;;32.33;69.44
40502;BME280;29631;49.168;9.848;2023-06-10T12:43:06;96355.31;;;32.49;69.82
40502;BME280;29631;49.168;9.848;2023-06-10T12:45:34;96362.94;;;32.56;69.42
40502;BME280;29631;49.168;9.848;2023-06-10T12:50:42;96348.28;;;32.64;69.28
40502;BME280;29631;49.168;9.848;2023-06-10T12:53:09;96336.50;;;32.60;68.82
40502;BME280;29631;49.168;9.848;2023-06-10T12:55:35;96356.94;;;32.66;68.88
40502;BME280;29631;49.168;9.848;2023-06-10T12:58:01;96354.66;;;32.68;68.91
40502;BME280;29631;49.168;9.848;2023-06-10T13:00:27;96349.09;;;32.64;68.01
40502;BME280;29631;49.168;9.848;2023-06-10T13:03:02;96350.69;;;32.65;67.55
40502;BME280;29631;49.168;9.848;2023-06-10T13:05:28;96355.53;;;32.72;67.73
40502;BME280;29631;49.168;9.848;2023-06-10T13:07:55;96341.78;;;32.68;68.34
40502;BME280;29631;49.168;9.848;2023-06-10T13:10:21;96344.50;;;32.68;67.64
40502;BME280;29631;49.168;9.848;2023-06-10T13:12:47;96338.16;;;32.64;67.72